sensor_id;sensor_type;location;lat;lon;timestamp;pressure;altitude;pressure_sealevel;temperature;humidity
51229;BME280;37304;52.216;6.874;2023-04-01T00:01:14;98897.06;;;8.80;100.00
51229;BME280;37304;52.216;6.874;2023-04-01T00:06:17;98897.06;;;8.80;100.00
51229;BME280;37304;52.216;6.874;2023-04-01T00:11:18;98893.72;;;8.78;100.00
51229;BME280;37304;52.216;6.874;2023-04-01T00:16:19;98889.31;;;8.80;100.00
51229;BME280;37304;52.216;6.874;2023-04-01T00:21:20;98895.41;;;8.79;100.00
51229;BME280;37304;52.216;6.874;2023-04-01T00:26:20;98896.44;;;8.74;100.00
51229;BME280;37304;52.216;6.874;2023-04-01T00:31:21;98888.66;;;8.74;100.00
51229;BME280;37304;52.216;6.874;2023-04-01T00:36:22;98879.16;;;8.75;100.00
51229;BME280;37304;52.216;6.874;2023-04-01T00:41:23;98882.69;;;8.72;100.00
51229;BME280;37304;52.216;6.874;2023-04-01T00:46:23;98880.97;;;8.73;100.00
51229;BME280;37304;52.216;6.874;2023-04-01T00:51:25;98878.38;;;8.73;100.00
51229;BME280;37304;52.216;6.874;2023-04-01T00:56:41;98879.41;;;8.69;100.00
51229;BME280;37304;52.216;6.874;2023-04-01T01:01:48;98875.84;;;8.71;100.00
51229;BME280;37304;52.216;6.874;2023-04-01T01:17:42;98875.00;;;8.71;100.00
51229;BME280;37304;52.216;6.874;2023-04-01T01:33:56;98869.94;;;8.68;100.00
51229;BME280;37304;52.216;6.874;2023-04-01T01:39:05;98864.69;;;8.69;100.00
51229;BME280;37304;52.216;6.874;2023-04-01T01:44:11;98874.34;;;8.66;100.00
51229;BME280;37304;52.216;6.874;2023-04-01T01:49:14;98871.81;;;8.64;100.00
51229;BME280;37304;52.216;6.874;2023-04-01T01:54:18;98878.94;;;8.59;100.00
51229;BME280;37304;52.216;6.874;2023-04-01T01:59:20;98877.16;;;8.59;100.00
51229;BME280;37304;52.216;6.874;2023-04-01T02:04:22;98877.97;;;8.62;100.00
51229;BME280;37304;52.216;6.874;2023-04-01T02:09:23;98883.06;;;8.63;100.00
51229;BME280;37304;52.216;6.874;2023-04-01T02:14:35;98877.28;;;8.56;100.00
51229;BME280;37304;52.216;6.874;2023-04-01T02:19:48;98882.53;;;8.55;100.00
51229;BME280;37304;52.216;6.874;2023-04-01T02:24:52;98888.53;;;8.55;100.00
51229;BME280;37304;52.216;6.874;2023-04-01T02:29:54;98891.22;;;8.54;100.00
51229;BME280;37304;52.216;6.874;2023-04-01T02:34:54;98887.84;;;8.52;100.00
51229;BME280;37304;52.216;6.874;2023-04-01T02:40:00;98893.81;;;8.54;100.00
51229;BME280;37304;52.216;6.874;2023-04-01T02:45:01;98897.09;;;8.57;100.00
51229;BME280;37304;52.216;6.874;2023-04-01T02:50:02;98893.03;;;8.52;100.00
51229;BME280;37304;52.216;6.874;2023-04-01T02:55:02;98902.41;;;8.54;100.00
51229;BME280;37304;52.216;6.874;2023-04-01T03:00:04;98901.38;;;8.58;100.00
51229;BME280;37304;52.216;6.874;2023-04-01T03:05:05;98901.28;;;8.62;100.00
51229;BME280;37304;52.216;6.874;2023-04-01T03:10:06;98910.78;;;8.61;100.00
51229;BME280;37304;52.216;6.874;2023-04-01T03:15:10;98911.38;;;8.68;100.00
51229;BME280;37304;52.216;6.874;2023-04-01T03:20:11;98907.25;;;8.64;100.00
51229;BME280;37304;52.216;6.874;2023-04-01T03:25:12;98913.91;;;8.69;100.00
51229;BME280;37304;52.216;6.874;2023-04-01T03:30:12;98922.78;;;8.64;100.00
51229;BME280;37304;52.216;6.874;2023-04-01T03:35:12;98919.28;;;8.65;100.00
51229;BME280;37304;52.216;6.874;2023-04-01T03:40:13;98922.78;;;8.64;100.00
51229;BME280;37304;52.216;6.874;2023-04-01T03:45:14;98928.84;;;8.63;100.00
51229;BME280;37304;52.216;6.874;2023-04-01T03:50:15;98930.47;;;8.65;100.00
51229;BME280;37304;52.216;6.874;2023-04-01T03:55:15;98932.09;;;8.68;100.00
51229;BME280;37304;52.216;6.874;2023-04-01T04:00:16;98933.13;;;8.64;100.00
51229;BME280;37304;52.216;6.874;2023-04-01T04:05:17;98941.69;;;8.66;100.00
51229;BME280;37304;52.216;6.874;2023-04-01T04:10:18;98942.63;;;8.63;100.00
51229;BME280;37304;52.216;6.874;2023-04-01T04:15:18;98947.69;;;8.66;100.00
51229;BME280;37304;52.216;6.874;2023-04-01T04:20:19;98957.34;;;8.63;100.00
51229;BME280;37304;52.216;6.874;2023-04-01T04:25:19;98951.06;;;8.68;100.00
51229;BME280;37304;52.216;6.874;2023-04-01T04:30:20;98960.75;;;8.63;100.00
51229;BME280;37304;52.216;6.874;2023-04-01T04:35:20;98965.00;;;8.66;100.00
51229;BME280;37304;52.216;6.874;2023-04-01T04:40:20;98969.91;;;8.72;100.00
51229;BME280;37304;52.216;6.874;2023-04-01T04:45:20;98969.13;;;8.70;100.00
51229;BME280;37304;52.216;6.874;2023-04-01T04:50:21;98971.66;;;8.71;100.00
51229;BME280;37304;52.216;6.874;2023-04-01T04:55:22;98972.75;;;8.66;100.00
51229;BME280;37304;52.216;6.874;2023-04-01T05:00:22;98979.75;;;8.64;100.00
51229;BME280;37304;52.216;6.874;2023-04-01T05:05:23;98985.91;;;8.59;100.00
51229;BME280;37304;52.216;6.874;2023-04-01T05:10:23;98988.28;;;8.66;100.00
51229;BME280;37304;52.216;6.874;2023-04-01T05:15:23;99000.38;;;8.65;100.00
51229;BME280;37304;52.216;6.874;2023-04-01T05:20:24;99007.09;;;8.71;100.00
51229;BME280;37304;52.216;6.874;2023-04-01T05:25:24;99002.81;;;8.70;100.00
51229;BME280;37304;52.216;6.874;2023-04-01T05:30:25;99006.34;;;8.67;100.00
51229;BME280;37304;52.216;6.874;2023-04-01T05:35:25;99014.78;;;8.72;100.00
51229;BME280;37304;52.216;6.874;2023-04-01T05:40:26;99021.84;;;8.69;100.00
51229;BME280;37304;52.216;6.874;2023-04-01T05:45:27;99020.84;;;8.71;100.00
51229;BME280;37304;52.216;6.874;2023-04-01T05:50:31;99027.72;;;8.72;100.00
51229;BME280;37304;52.216;6.874;2023-04-01T05:55:31;99026.72;;;8.77;100.00
51229;BME280;37304;52.216;6.874;2023-04-01T06:00:31;99032.97;;;8.71;100.00
51229;BME280;37304;52.216;6.874;2023-04-01T06:05:42;99033.69;;;8.74;100.00
51229;BME280;37304;52.216;6.874;2023-04-01T06:16:42;99048.41;;;8.74;100.00
51229;BME280;37304;52.216;6.874;2023-04-01T06:37:27;99062.72;;;8.83;100.00
51229;BME280;37304;52.216;6.874;2023-04-01T06:48:08;99063.22;;;8.93;100.00
51229;BME280;37304;52.216;6.874;2023-04-01T06:58:19;99071.19;;;9.10;100.00
51229;BME280;37304;52.216;6.874;2023-04-01T07:08:38;99079.56;;;9.17;100.00
51229;BME280;37304;52.216;6.874;2023-04-01T07:13:47;99081.19;;;9.20;100.00
51229;BME280;37304;52.216;6.874;2023-04-01T07:18:56;99082.69;;;9.25;100.00
51229;BME280;37304;52.216;6.874;2023-04-01T07:24:04;99086.50;;;9.39;100.00
51229;BME280;37304;52.216;6.874;2023-04-01T07:29:11;99101.66;;;9.48;100.00
51229;BME280;37304;52.216;6.874;2023-04-01T07:34:19;99103.22;;;9.52;100.00
51229;BME280;37304;52.216;6.874;2023-04-01T07:50:26;99118.53;;;9.58;100.00
51229;BME280;37304;52.216;6.874;2023-04-01T07:55:47;99120.53;;;9.74;100.00
51229;BME280;37304;52.216;6.874;2023-04-01T08:01:05;99131.38;;;9.84;100.00
51229;BME280;37304;52.216;6.874;2023-04-01T08:06:18;99141.34;;;9.93;100.00
51229;BME280;37304;52.216;6.874;2023-04-01T08:11:28;99144.16;;;10.09;100.00
51229;BME280;37304;52.216;6.874;2023-04-01T08:17:02;99146.56;;;10.14;100.00
51229;BME280;37304;52.216;6.874;2023-04-01T08:22:09;99155.72;;;10.23;100.00
51229;BME280;37304;52.216;6.874;2023-04-01T08:32:35;99157.53;;;10.62;100.00
51229;BME280;37304;52.216;6.874;2023-04-01T08:37:39;99175.13;;;10.55;100.00
51229;BME280;37304;52.216;6.874;2023-04-01T08:42:48;99173.72;;;10.69;100.00
51229;BME280;37304;52.216;6.874;2023-04-01T09:04:25;99196.50;;;11.21;100.00
51229;BME280;37304;52.216;6.874;2023-04-01T09:41:32;99235.00;;;11.70;100.00
51229;BME280;37304;52.216;6.874;2023-04-01T09:47:06;99245.44;;;11.88;100.00
51229;BME280;37304;52.216;6.874;2023-04-01T10:29:58;99273.50;;;12.55;100.00
51229;BME280;37304;52.216;6.874;2023-04-01T10:35:30;99289.41;;;12.13;100.00
51229;BME280;37304;52.216;6.874;2023-04-01T10:40:42;99296.59;;;12.62;100.00
51229;BME280;37304;52.216;6.874;2023-04-01T10:46:12;99287.69;;;12.49;100.00
51229;BME280;37304;52.216;6.874;2023-04-01T11:02:56;99305.88;;;11.94;100.00
51229;BME280;37304;52.216;6.874;2023-04-01T11:19:11;99330.66;;;11.65;100.00
51229;BME280;37304;52.216;6.874;2023-04-01T11:30:07;99339.56;;;11.98;100.00
51229;BME280;37304;52.216;6.874;2023-04-01T11:40:40;99355.72;;;12.06;100.00
51229;BME280;37304;52.216;6.874;2023-04-01T11:45:55;99357.09;;;12.32;100.00
51229;BME280;37304;52.216;6.874;2023-04-01T12:13:14;99407.06;;;12.21;100.00
51229;BME280;37304;52.216;6.874;2023-04-01T12:18:29;99418.75;;;11.93;100.00
51229;BME280;37304;52.216;6.874;2023-04-01T12:23:59;99423.22;;;11.71;100.00
51229;BME280;37304;52.216;6.874;2023-04-01T12:35:01;99453.72;;;11.26;100.00
51229;BME280;37304;52.216;6.874;2023-04-01T12:40:20;99460.31;;;11.14;100.00
51229;BME280;37304;52.216;6.874;2023-04-01T12:45:35;99468.56;;;11.24;100.00
51229;BME280;37304;52.216;6.874;2023-04-01T12:55:45;99486.66;;;11.47;100.00
51229;BME280;37304;52.216;6.874;2023-04-01T13:17:13;99513.66;;;11.86;100.00
51229;BME280;37304;52.216;6.874;2023-04-01T13:28:01;99520.31;;;11.73;100.00
51229;BME280;37304;52.216;6.874;2023-04-01T13:33:25;99520.00;;;11.58;100.00
51229;BME280;37304;52.216;6.874;2023-04-01T13:44:30;99539.09;;;11.59;100.00
51229;BME280;37304;52.216;6.874;2023-04-01T13:55:44;99554.31;;;11.47;100.00
51229;BME280;37304;52.216;6.874;2023-04-01T14:01:13;99558.66;;;11.47;100.00
51229;BME280;37304;52.216;6.874;2023-04-01T14:06:17;99564.44;;;11.33;100.00
51229;BME280;37304;52.216;6.874;2023-04-01T14:11:51;99572.53;;;11.25;100.00
51229;BME280;37304;52.216;6.874;2023-04-01T14:27:43;99597.09;;;11.40;100.00
51229;BME280;37304;52.216;6.874;2023-04-01T14:38:28;99637.34;;;10.84;100.00
51229;BME280;37304;52.216;6.874;2023-04-01T14:49:04;99645.28;;;10.81;100.00
51229;BME280;37304;52.216;6.874;2023-04-01T14:54:17;99653.44;;;10.46;100.00
51229;BME280;37304;52.216;6.874;2023-04-01T14:59:28;99662.44;;;10.35;100.00
51229;BME280;37304;52.216;6.874;2023-04-01T15:10:12;99677.97;;;10.37;100.00
51229;BME280;37304;52.216;6.874;2023-04-01T15:15:27;99684.09;;;10.34;100.00
51229;BME280;37304;52.216;6.874;2023-04-01T15:46:49;99759.75;;;9.97;100.00
51229;BME280;37304;52.216;6.874;2023-04-01T16:03:02;99808.84;;;9.46;100.00
51229;BME280;37304;52.216;6.874;2023-04-01T16:09:02;99820.00;;;9.48;100.00
51229;BME280;37304;52.216;6.874;2023-04-01T16:14:10;99828.84;;;9.41;100.00
51229;BME280;37304;52.216;6.874;2023-04-01T16:24:47;99853.59;;;9.21;100.00
51229;BME280;37304;52.216;6.874;2023-04-01T16:51:22;99905.13;;;8.64;100.00
51229;BME280;37304;52.216;6.874;2023-04-01T16:56:25;99920.75;;;8.59;100.00
51229;BME280;37304;52.216;6.874;2023-04-01T17:07:24;99945.19;;;8.48;100.00
51229;BME280;37304;52.216;6.874;2023-04-01T17:12:37;99961.91;;;8.33;100.00
51229;BME280;37304;52.216;6.874;2023-04-01T17:18:01;99969.81;;;8.26;100.00
51229;BME280;37304;52.216;6.874;2023-04-01T17:23:13;99981.19;;;8.18;100.00
51229;BME280;37304;52.216;6.874;2023-04-01T17:28:44;100006.22;;;8.17;100.00
51229;BME280;37304;52.216;6.874;2023-04-01T17:39:11;100026.31;;;8.04;100.00
51229;BME280;37304;52.216;6.874;2023-04-01T17:44:37;100037.66;;;7.97;100.00
51229;BME280;37304;52.216;6.874;2023-04-01T17:50:14;100050.84;;;7.84;100.00
51229;BME280;37304;52.216;6.874;2023-04-01T18:05:56;100089.75;;;7.77;100.00
51229;BME280;37304;52.216;6.874;2023-04-01T18:16:40;100121.00;;;7.64;100.00
51229;BME280;37304;52.216;6.874;2023-04-01T18:21:47;100133.38;;;7.45;100.00
51229;BME280;37304;52.216;6.874;2023-04-01T18:27:06;100144.72;;;7.35;100.00
51229;BME280;37304;52.216;6.874;2023-04-01T18:32:13;100162.13;;;7.22;100.00
51229;BME280;37304;52.216;6.874;2023-04-01T18:42:38;100183.75;;;7.16;100.00
51229;BME280;37304;52.216;6.874;2023-04-01T18:47:54;100194.09;;;7.14;100.00
51229;BME280;37304;52.216;6.874;2023-04-01T18:53:22;100214.81;;;7.13;100.00
51229;BME280;37304;52.216;6.874;2023-04-01T19:03:57;100238.19;;;7.04;100.00
51229;BME280;37304;52.216;6.874;2023-04-01T19:09:16;100262.38;;;6.96;100.00
51229;BME280;37304;52.216;6.874;2023-04-01T19:30:35;100301.44;;;6.62;100.00
51229;BME280;37304;52.216;6.874;2023-04-01T19:35:47;100310.91;;;6.65;100.00
51229;BME280;37304;52.216;6.874;2023-04-01T19:41:03;100317.84;;;6.55;100.00
51229;BME280;37304;52.216;6.874;2023-04-01T19:52:22;100326.56;;;6.45;100.00
51229;BME280;37304;52.216;6.874;2023-04-01T19:57:46;100353.25;;;6.40;100.00
51229;BME280;37304;52.216;6.874;2023-04-01T20:08:21;100372.28;;;6.21;100.00
51229;BME280;37304;52.216;6.874;2023-04-01T20:13:35;100389.56;;;6.11;100.00
51229;BME280;37304;52.216;6.874;2023-04-01T20:19:00;100398.16;;;6.13;100.00
51229;BME280;37304;52.216;6.874;2023-04-01T20:24:14;100421.41;;;6.05;100.00
51229;BME280;37304;52.216;6.874;2023-04-01T20:29:41;100431.75;;;5.96;100.00
51229;BME280;37304;52.216;6.874;2023-04-01T20:35:02;100443.78;;;5.94;100.00
51229;BME280;37304;52.216;6.874;2023-04-01T20:40:28;100464.44;;;5.88;100.00
51229;BME280;37304;52.216;6.874;2023-04-01T20:45:33;100473.88;;;5.87;100.00
51229;BME280;37304;52.216;6.874;2023-04-01T20:50:57;100483.34;;;5.85;100.00
51229;BME280;37304;52.216;6.874;2023-04-01T21:01:15;100503.97;;;5.88;100.00
51229;BME280;37304;52.216;6.874;2023-04-01T21:17:11;100537.53;;;5.62;100.00
51229;BME280;37304;52.216;6.874;2023-04-01T21:22:27;100548.72;;;5.59;100.00
51229;BME280;37304;52.216;6.874;2023-04-01T21:44:43;100597.72;;;5.56;100.00
51229;BME280;37304;52.216;6.874;2023-04-01T21:50:10;100617.44;;;5.52;100.00
51229;BME280;37304;52.216;6.874;2023-04-01T22:00:24;100633.78;;;5.48;100.00
51229;BME280;37304;52.216;6.874;2023-04-01T22:05:36;100637.22;;;5.49;100.00
51229;BME280;37304;52.216;6.874;2023-04-01T22:21:18;100677.53;;;5.25;100.00
51229;BME280;37304;52.216;6.874;2023-04-01T22:26:29;100693.00;;;5.20;100.00
51229;BME280;37304;52.216;6.874;2023-04-01T22:31:48;100695.53;;;5.05;100.00
51229;BME280;37304;52.216;6.874;2023-04-01T22:37:16;100711.00;;;5.05;100.00
51229;BME280;37304;52.216;6.874;2023-04-01T22:42:41;100716.94;;;4.90;100.00
51229;BME280;37304;52.216;6.874;2023-04-01T22:47:59;100716.94;;;4.93;100.00
51229;BME280;37304;52.216;6.874;2023-04-01T22:53:32;100725.50;;;4.90;100.00
51229;BME280;37304;52.216;6.874;2023-04-01T22:58:43;100746.94;;;4.81;100.00
51229;BME280;37304;52.216;6.874;2023-04-01T23:03:49;100758.03;;;4.76;100.00
51229;BME280;37304;52.216;6.874;2023-04-01T23:25:16;100794.78;;;4.55;100.00
51229;BME280;37304;52.216;6.874;2023-04-01T23:40:54;100829.94;;;4.51;100.00
51229;BME280;37304;52.216;6.874;2023-04-01T23:45:55;100822.19;;;4.49;100.00
51229;BME280;37304;52.216;6.874;2023-04-01T23:50:56;100846.25;;;4.51;100.00
51229;BME280;37304;52.216;6.874;2023-04-01T23:55:58;100856.50;;;4.44;100.00
